sensor_id;sensor_type;location;lat;lon;timestamp;temperature;humidity
84198;DHT22;74335;42.658;23.396;2023-11-21T15:49:17;24.72;42.23
84198;DHT22;74335;42.658;23.396;2023-11-21T15:51:47;24.72;42.32
84198;DHT22;74335;42.658;23.396;2023-11-21T15:54:21;24.73;42.40
84198;DHT22;74335;42.658;23.396;2023-11-21T15:56:53;24.70;42.41
84198;DHT22;74335;42.658;23.396;2023-11-21T15:59:23;24.70;42.43
84198;DHT22;74335;42.658;23.396;2023-11-21T16:01:49;24.69;42.37
84198;DHT22;74335;42.658;23.396;2023-11-21T16:04:15;24.72;42.43
84198;DHT22;74335;42.658;23.396;2023-11-21T16:06:45;24.70;42.47
84198;DHT22;74335;42.658;23.396;2023-11-21T16:09:12;24.69;42.42
84198;DHT22;74335;42.658;23.396;2023-11-21T16:11:47;24.70;42.56
84198;DHT22;74335;42.658;23.396;2023-11-21T16:14:12;24.68;42.51
84198;DHT22;74335;42.658;23.396;2023-11-21T16:16:38;24.68;42.53
84198;DHT22;74335;42.658;23.396;2023-11-21T16:19:04;24.69;42.56
84198;DHT22;74335;42.658;23.396;2023-11-21T16:21:29;24.63;41.79
84198;DHT22;74335;42.658;23.396;2023-11-21T16:23:58;24.25;38.00
84198;DHT22;74335;42.658;23.396;2023-11-21T16:26:23;23.66;35.27
84198;DHT22;74335;42.658;23.396;2023-11-21T16:30:12;22.87;34.86
84198;DHT22;74335;42.658;23.396;2023-11-21T16:32:39;22.53;34.84
84198;DHT22;74335;42.658;23.396;2023-11-21T16:35:08;22.29;36.58
84198;DHT22;74335;42.658;23.396;2023-11-21T16:38:45;22.46;37.87
84198;DHT22;74335;42.658;23.396;2023-11-21T16:41:11;22.71;38.16
84198;DHT22;74335;42.658;23.396;2023-11-21T16:43:38;22.88;38.70
84198;DHT22;74335;42.658;23.396;2023-11-21T16:46:05;22.91;39.45
84198;DHT22;74335;42.658;23.396;2023-11-21T16:48:31;23.05;39.69
84198;DHT22;74335;42.658;23.396;2023-11-21T16:50:58;23.15;40.44
84198;DHT22;74335;42.658;23.396;2023-11-21T16:53:25;23.18;41.25
84198;DHT22;74335;42.658;23.396;2023-11-21T16:55:53;23.27;41.49
84198;DHT22;74335;42.658;23.396;2023-11-21T16:58:20;23.29;42.27
84198;DHT22;74335;42.658;23.396;2023-11-21T17:00:46;23.42;42.10
84198;DHT22;74335;42.658;23.396;2023-11-21T17:03:13;23.50;42.30
84198;DHT22;74335;42.658;23.396;2023-11-21T17:05:40;23.74;43.31
84198;DHT22;74335;42.658;23.396;2023-11-21T17:08:06;23.87;42.43
84198;DHT22;74335;42.658;23.396;2023-11-21T17:10:36;24.04;41.84
84198;DHT22;74335;42.658;23.396;2023-11-21T17:13:05;24.15;41.69
84198;DHT22;74335;42.658;23.396;2023-11-21T17:15:32;24.17;42.39
84198;DHT22;74335;42.658;23.396;2023-11-21T17:17:59;24.26;41.97
84198;DHT22;74335;42.658;23.396;2023-11-21T17:20:27;24.28;41.52
84198;DHT22;74335;42.658;23.396;2023-11-21T17:22:54;24.35;41.35
84198;DHT22;74335;42.658;23.396;2023-11-21T17:25:21;24.39;41.23
84198;DHT22;74335;42.658;23.396;2023-11-21T17:27:48;24.38;41.19
84198;DHT22;74335;42.658;23.396;2023-11-21T17:30:17;24.39;41.10
84198;DHT22;74335;42.658;23.396;2023-11-21T17:32:44;24.39;41.02
84198;DHT22;74335;42.658;23.396;2023-11-21T17:35:11;24.42;40.98
84198;DHT22;74335;42.658;23.396;2023-11-21T17:37:38;24.42;40.95
84198;DHT22;74335;42.658;23.396;2023-11-21T17:40:06;24.41;40.91
84198;DHT22;74335;42.658;23.396;2023-11-21T17:42:33;24.43;40.84
84198;DHT22;74335;42.658;23.396;2023-11-21T17:45:00;24.43;40.84
84198;DHT22;74335;42.658;23.396;2023-11-21T17:47:28;24.41;40.83
84198;DHT22;74335;42.658;23.396;2023-11-21T17:49:54;24.41;40.71
84198;DHT22;74335;42.658;23.396;2023-11-21T17:52:21;24.42;40.66
84198;DHT22;74335;42.658;23.396;2023-11-21T17:54:49;24.42;40.62
84198;DHT22;74335;42.658;23.396;2023-11-21T17:57:16;24.45;40.58
84198;DHT22;74335;42.658;23.396;2023-11-21T17:59:43;24.43;40.63
84198;DHT22;74335;42.658;23.396;2023-11-21T18:02:12;24.45;40.67
84198;DHT22;74335;42.658;23.396;2023-11-21T18:04:40;24.45;40.60
84198;DHT22;74335;42.658;23.396;2023-11-21T18:07:07;24.49;40.62
84198;DHT22;74335;42.658;23.396;2023-11-21T18:09:34;24.51;40.64
84198;DHT22;74335;42.658;23.396;2023-11-21T18:12:01;24.49;40.60
84198;DHT22;74335;42.658;23.396;2023-11-21T18:14:28;24.51;40.72
84198;DHT22;74335;42.658;23.396;2023-11-21T18:16:55;24.51;40.83
84198;DHT22;74335;42.658;23.396;2023-11-21T18:19:22;24.52;40.79
84198;DHT22;74335;42.658;23.396;2023-11-21T18:21:50;24.49;40.85
84198;DHT22;74335;42.658;23.396;2023-11-21T18:24:17;24.49;40.88
84198;DHT22;74335;42.658;23.396;2023-11-21T18:26:44;24.49;40.89
84198;DHT22;74335;42.658;23.396;2023-11-21T18:29:11;24.49;40.85
84198;DHT22;74335;42.658;23.396;2023-11-21T18:31:42;24.51;40.86
84198;DHT22;74335;42.658;23.396;2023-11-21T18:34:10;24.51;40.87
84198;DHT22;74335;42.658;23.396;2023-11-21T18:36:36;24.49;40.93
84198;DHT22;74335;42.658;23.396;2023-11-21T18:39:04;24.51;40.92
84198;DHT22;74335;42.658;23.396;2023-11-21T18:41:33;24.51;40.93
84198;DHT22;74335;42.658;23.396;2023-11-21T18:44:00;24.51;40.89
84198;DHT22;74335;42.658;23.396;2023-11-21T18:46:27;24.49;40.96
84198;DHT22;74335;42.658;23.396;2023-11-21T18:48:53;24.49;41.08
84198;DHT22;74335;42.658;23.396;2023-11-21T18:51:20;24.48;41.06
84198;DHT22;74335;42.658;23.396;2023-11-21T18:53:47;24.47;41.00
84198;DHT22;74335;42.658;23.396;2023-11-21T18:56:24;24.47;40.98
84198;DHT22;74335;42.658;23.396;2023-11-21T18:58:54;24.45;40.97
84198;DHT22;74335;42.658;23.396;2023-11-21T19:01:24;24.45;40.97
84198;DHT22;74335;42.658;23.396;2023-11-21T19:03:52;24.41;40.93
84198;DHT22;74335;42.658;23.396;2023-11-21T19:06:19;24.43;40.83
84198;DHT22;74335;42.658;23.396;2023-11-21T19:08:46;24.42;40.82
84198;DHT22;74335;42.658;23.396;2023-11-21T19:11:12;24.42;40.82
84198;DHT22;74335;42.658;23.396;2023-11-21T19:13:40;24.41;40.75
84198;DHT22;74335;42.658;23.396;2023-11-21T19:16:08;24.41;40.71
84198;DHT22;74335;42.658;23.396;2023-11-21T19:18:35;24.38;40.66
84198;DHT22;74335;42.658;23.396;2023-11-21T19:21:02;24.39;40.67
84198;DHT22;74335;42.658;23.396;2023-11-21T19:23:29;24.41;40.57
84198;DHT22;74335;42.658;23.396;2023-11-21T19:25:56;24.36;40.61
84198;DHT22;74335;42.658;23.396;2023-11-21T19:28:23;24.36;40.60
84198;DHT22;74335;42.658;23.396;2023-11-21T19:30:51;24.36;40.54
84198;DHT22;74335;42.658;23.396;2023-11-21T19:33:17;24.35;40.52
84198;DHT22;74335;42.658;23.396;2023-11-21T19:35:45;24.36;40.48
84198;DHT22;74335;42.658;23.396;2023-11-21T19:38:12;24.38;40.48
84198;DHT22;74335;42.658;23.396;2023-11-21T19:40:39;24.35;40.42
84198;DHT22;74335;42.658;23.396;2023-11-21T19:43:08;24.35;40.45
84198;DHT22;74335;42.658;23.396;2023-11-21T19:45:35;24.33;40.43
84198;DHT22;74335;42.658;23.396;2023-11-21T19:48:03;24.32;40.40
84198;DHT22;74335;42.658;23.396;2023-11-21T19:50:31;24.35;40.37
84198;DHT22;74335;42.658;23.396;2023-11-21T19:52:58;24.33;40.30
84198;DHT22;74335;42.658;23.396;2023-11-21T19:55:25;24.35;40.32
84198;DHT22;74335;42.658;23.396;2023-11-21T19:57:51;24.33;40.24
84198;DHT22;74335;42.658;23.396;2023-11-21T20:00:18;24.33;40.27
84198;DHT22;74335;42.658;23.396;2023-11-21T20:02:45;24.33;40.22
84198;DHT22;74335;42.658;23.396;2023-11-21T20:05:13;24.31;40.24
84198;DHT22;74335;42.658;23.396;2023-11-21T20:07:40;24.31;40.17
84198;DHT22;74335;42.658;23.396;2023-11-21T20:10:08;24.33;40.17
84198;DHT22;74335;42.658;23.396;2023-11-21T20:12:35;24.32;40.13
84198;DHT22;74335;42.658;23.396;2023-11-21T20:15:02;24.32;40.09
84198;DHT22;74335;42.658;23.396;2023-11-21T20:17:29;24.31;40.09
84198;DHT22;74335;42.658;23.396;2023-11-21T20:19:56;24.33;40.11
84198;DHT22;74335;42.658;23.396;2023-11-21T20:22:24;24.47;39.97
84198;DHT22;74335;42.658;23.396;2023-11-21T20:24:51;24.52;39.91
84198;DHT22;74335;42.658;23.396;2023-11-21T20:27:18;24.55;39.92
84198;DHT22;74335;42.658;23.396;2023-11-21T20:29:44;24.55;39.92
84198;DHT22;74335;42.658;23.396;2023-11-21T20:32:11;24.55;39.89
84198;DHT22;74335;42.658;23.396;2023-11-21T20:34:39;24.53;39.86
84198;DHT22;74335;42.658;23.396;2023-11-21T20:37:06;24.52;39.94
84198;DHT22;74335;42.658;23.396;2023-11-21T20:39:35;24.55;39.94
84198;DHT22;74335;42.658;23.396;2023-11-21T20:42:02;24.52;40.00
84198;DHT22;74335;42.658;23.396;2023-11-21T20:44:29;24.55;39.97
84198;DHT22;74335;42.658;23.396;2023-11-21T20:46:56;24.51;40.02
84198;DHT22;74335;42.658;23.396;2023-11-21T20:49:23;24.52;40.01
84198;DHT22;74335;42.658;23.396;2023-11-21T20:51:49;24.51;40.04
84198;DHT22;74335;42.658;23.396;2023-11-21T20:54:16;24.52;40.13
84198;DHT22;74335;42.658;23.396;2023-11-21T20:56:44;24.49;40.20
84198;DHT22;74335;42.658;23.396;2023-11-21T20:59:11;24.49;40.26
84198;DHT22;74335;42.658;23.396;2023-11-21T21:01:38;24.49;40.22
84198;DHT22;74335;42.658;23.396;2023-11-21T21:04:04;24.49;40.16
84198;DHT22;74335;42.658;23.396;2023-11-21T21:06:33;24.49;40.26
84198;DHT22;74335;42.658;23.396;2023-11-21T21:08:59;24.51;40.31
84198;DHT22;74335;42.658;23.396;2023-11-21T21:11:27;24.51;40.31
84198;DHT22;74335;42.658;23.396;2023-11-21T21:13:58;24.48;40.39
84198;DHT22;74335;42.658;23.396;2023-11-21T21:16:25;24.47;40.41
84198;DHT22;74335;42.658;23.396;2023-11-21T21:18:52;24.48;40.37
84198;DHT22;74335;42.658;23.396;2023-11-21T21:21:20;24.48;40.35
84198;DHT22;74335;42.658;23.396;2023-11-21T21:23:48;24.48;40.36
84198;DHT22;74335;42.658;23.396;2023-11-21T21:26:15;24.47;40.33
84198;DHT22;74335;42.658;23.396;2023-11-21T21:28:43;24.47;40.36
84198;DHT22;74335;42.658;23.396;2023-11-21T21:31:13;24.49;40.40
84198;DHT22;74335;42.658;23.396;2023-11-21T21:33:39;24.47;40.50
84198;DHT22;74335;42.658;23.396;2023-11-21T21:36:09;24.47;40.55
84198;DHT22;74335;42.658;23.396;2023-11-21T21:38:36;24.47;40.57
84198;DHT22;74335;42.658;23.396;2023-11-21T21:41:05;24.48;40.56
84198;DHT22;74335;42.658;23.396;2023-11-21T21:43:32;24.47;40.47
84198;DHT22;74335;42.658;23.396;2023-11-21T21:45:58;24.47;40.50
84198;DHT22;74335;42.658;23.396;2023-11-21T21:48:26;24.45;40.58
84198;DHT22;74335;42.658;23.396;2023-11-21T21:50:54;24.43;40.57
84198;DHT22;74335;42.658;23.396;2023-11-21T21:53:20;24.45;40.62
84198;DHT22;74335;42.658;23.396;2023-11-21T21:55:47;24.47;40.53
84198;DHT22;74335;42.658;23.396;2023-11-21T21:58:16;24.48;40.65
84198;DHT22;74335;42.658;23.396;2023-11-21T22:00:43;24.45;40.66
84198;DHT22;74335;42.658;23.396;2023-11-21T22:03:10;24.48;40.76
84198;DHT22;74335;42.658;23.396;2023-11-21T22:05:38;24.47;40.74
84198;DHT22;74335;42.658;23.396;2023-11-21T22:08:05;24.51;40.82
84198;DHT22;74335;42.658;23.396;2023-11-21T22:10:32;24.47;40.89
84198;DHT22;74335;42.658;23.396;2023-11-21T22:12:59;24.48;40.89
84198;DHT22;74335;42.658;23.396;2023-11-21T22:15:25;24.52;40.93
84198;DHT22;74335;42.658;23.396;2023-11-21T22:17:52;24.47;40.96
84198;DHT22;74335;42.658;23.396;2023-11-21T22:20:19;24.48;41.02
84198;DHT22;74335;42.658;23.396;2023-11-21T22:22:48;24.51;40.99
84198;DHT22;74335;42.658;23.396;2023-11-21T22:25:15;24.48;41.03
84198;DHT22;74335;42.658;23.396;2023-11-21T22:27:42;24.49;41.05
84198;DHT22;74335;42.658;23.396;2023-11-21T22:30:10;24.51;41.39
84198;DHT22;74335;42.658;23.396;2023-11-21T22:32:37;24.52;41.26
84198;DHT22;74335;42.658;23.396;2023-11-21T22:35:04;24.55;41.18
84198;DHT22;74335;42.658;23.396;2023-11-21T22:37:34;24.55;41.19
84198;DHT22;74335;42.658;23.396;2023-11-21T22:40:02;24.58;41.19
84198;DHT22;74335;42.658;23.396;2023-11-21T22:42:30;24.60;41.26
84198;DHT22;74335;42.658;23.396;2023-11-21T22:44:57;24.60;41.23
84198;DHT22;74335;42.658;23.396;2023-11-21T22:47:24;24.59;41.24
84198;DHT22;74335;42.658;23.396;2023-11-21T22:49:51;24.59;41.24
84198;DHT22;74335;42.658;23.396;2023-11-21T22:52:19;24.58;41.32
84198;DHT22;74335;42.658;23.396;2023-11-21T22:54:46;24.62;41.32
84198;DHT22;74335;42.658;23.396;2023-11-21T22:57:15;24.62;41.49
84198;DHT22;74335;42.658;23.396;2023-11-21T22:59:41;24.62;41.47
84198;DHT22;74335;42.658;23.396;2023-11-21T23:02:09;24.63;41.49
84198;DHT22;74335;42.658;23.396;2023-11-21T23:04:36;24.62;41.51
84198;DHT22;74335;42.658;23.396;2023-11-21T23:07:03;24.66;41.62
84198;DHT22;74335;42.658;23.396;2023-11-21T23:09:32;24.66;41.70
84198;DHT22;74335;42.658;23.396;2023-11-21T23:11:59;24.65;41.83
84198;DHT22;74335;42.658;23.396;2023-11-21T23:14:27;24.66;41.88
84198;DHT22;74335;42.658;23.396;2023-11-21T23:16:53;24.69;42.18
84198;DHT22;74335;42.658;23.396;2023-11-21T23:19:23;24.69;42.17
84198;DHT22;74335;42.658;23.396;2023-11-21T23:21:49;24.69;42.33
84198;DHT22;74335;42.658;23.396;2023-11-21T23:24:16;24.72;42.37
84198;DHT22;74335;42.658;23.396;2023-11-21T23:26:46;24.72;42.34
84198;DHT22;74335;42.658;23.396;2023-11-21T23:29:14;24.69;42.32
84198;DHT22;74335;42.658;23.396;2023-11-21T23:31:42;24.72;42.46
84198;DHT22;74335;42.658;23.396;2023-11-21T23:34:09;24.69;42.52
84198;DHT22;74335;42.658;23.396;2023-11-21T23:36:37;24.69;42.60
84198;DHT22;74335;42.658;23.396;2023-11-21T23:39:04;24.66;42.89
84198;DHT22;74335;42.658;23.396;2023-11-21T23:41:33;24.73;42.93
84198;DHT22;74335;42.658;23.396;2023-11-21T23:43:59;24.72;42.86
84198;DHT22;74335;42.658;23.396;2023-11-21T23:46:26;24.72;43.11
84198;DHT22;74335;42.658;23.396;2023-11-21T23:48:55;24.72;43.22
84198;DHT22;74335;42.658;23.396;2023-11-21T23:51:21;24.73;43.35
84198;DHT22;74335;42.658;23.396;2023-11-21T23:53:49;24.73;43.34
84198;DHT22;74335;42.658;23.396;2023-11-21T23:56:15;24.75;43.32
84198;DHT22;74335;42.658;23.396;2023-11-21T23:58:42;24.75;43.31
